createdAt,value
2014-10-15T00:00:25.564Z,74.58
2014-10-15T00:01:30.253Z,74.29
2014-10-15T00:02:35.240Z,74.74
2014-10-15T00:03:39.929Z,74.86
2014-10-15T00:04:44.635Z,74.5
2014-10-15T00:05:49.324Z,74.27
2014-10-15T00:06:54.029Z,74.2
2014-10-15T00:07:58.718Z,74.46
2014-10-15T00:09:03.423Z,74.47
2014-10-15T00:10:07.957Z,74.74
2014-10-15T00:11:12.663Z,74.68
2014-10-15T00:12:17.352Z,74.74
2014-10-15T00:13:22.056Z,74.79
2014-10-15T00:14:26.059Z,74.58
2014-10-15T00:15:31.046Z,74.94
2014-10-15T00:16:35.751Z,73.81
2014-10-15T00:17:40.737Z,73.69
2014-10-15T00:18:45.427Z,74.04
2014-10-15T00:19:50.132Z,74.25
2014-10-15T00:20:55.118Z,74.64
2014-10-15T00:21:59.823Z,74.53
2014-10-15T00:23:04.811Z,74.67
2014-10-15T00:24:09.499Z,74.93
2014-10-15T00:25:14.189Z,74.99
2014-10-15T00:26:18.895Z,75
2014-10-15T00:27:23.599Z,74.95
2014-10-15T00:28:28.290Z,74.83
2014-10-15T00:29:32.994Z,75.08
2014-10-15T00:30:36.996Z,74.78
2014-10-15T00:31:41.702Z,74.81
2014-10-15T00:32:46.391Z,75.23
2014-10-15T00:33:51.081Z,74.99
2014-10-15T00:34:56.083Z,74.32
2014-10-15T00:36:00.772Z,74.67
2014-10-15T00:37:05.759Z,74.38
2014-10-15T00:38:10.464Z,74.43
2014-10-15T00:39:14.748Z,74.36
2014-10-15T00:40:19.453Z,73.9
2014-10-15T00:41:24.440Z,73.97
2014-10-15T00:42:29.145Z,74.03
2014-10-15T00:43:33.834Z,74.11
2014-10-15T00:44:38.523Z,74.42
2014-10-15T00:45:43.229Z,74.55
2014-10-15T00:46:47.918Z,74.76
2014-10-15T00:47:52.608Z,74.52
2014-10-15T00:48:57.313Z,74.73
2014-10-15T00:50:02.002Z,74.46
2014-10-15T00:51:07.004Z,74.45
2014-10-15T00:52:11.991Z,74.91
2014-10-15T00:53:16.697Z,74.88
2014-10-15T00:54:21.682Z,75.2
2014-10-15T00:55:26.372Z,75.29
2014-10-15T00:56:31.359Z,75.35
2014-10-15T00:57:36.346Z,75.92
2014-10-15T00:58:41.348Z,75.56
2014-10-15T00:59:46.037Z,75.68
2014-10-15T01:00:50.742Z,75.63
2014-10-15T01:01:55.432Z,75.26
2014-10-15T01:03:00.137Z,75.27
2014-10-15T01:04:04.826Z,75.18
2014-10-15T01:05:09.531Z,74.97
2014-10-15T01:06:13.533Z,75.33
2014-10-15T01:07:18.224Z,75.24
2014-10-15T01:08:22.929Z,75.27
2014-10-15T01:09:27.618Z,75.07
2014-10-15T01:10:32.307Z,75.01
2014-10-15T01:11:37.013Z,74.88
2014-10-15T01:12:41.703Z,74.8
2014-10-15T01:13:46.408Z,74.91
2014-10-15T01:14:51.096Z,74.94
2014-10-15T01:15:55.787Z,74.75
2014-10-15T01:17:00.508Z,74.55
2014-10-15T01:18:05.197Z,74.75
2014-10-15T01:19:10.199Z,74.96
2014-10-15T01:20:14.905Z,74.67
2014-10-15T01:21:19.594Z,75.1
2014-10-15T01:22:24.283Z,74.72
2014-10-15T01:23:29.271Z,74.78
2014-10-15T01:24:33.975Z,74.75
2014-10-15T01:25:38.665Z,75.01
2014-10-15T01:26:43.354Z,75.21
2014-10-15T01:27:48.060Z,75.18
2014-10-15T01:28:52.748Z,75.31
2014-10-15T01:29:57.454Z,74.86
2014-10-15T01:31:02.144Z,74.97
2014-10-15T01:32:06.865Z,74.55
2014-10-15T01:33:11.570Z,74.44
2014-10-15T01:34:16.259Z,74.77
2014-10-15T01:35:21.246Z,74.68
2014-10-15T01:36:25.248Z,74.81
2014-10-15T01:37:29.953Z,74.65
2014-10-15T01:38:34.939Z,74.7
2014-10-15T01:39:39.629Z,74.85
2014-10-15T01:40:44.335Z,75.07
2014-10-15T01:41:49.039Z,73.71
2014-10-15T01:42:53.729Z,73.15
2014-10-15T01:43:58.435Z,73.29
2014-10-15T01:45:03.140Z,73.46
2014-10-15T01:46:07.829Z,73.81
2014-10-15T01:47:12.534Z,72.92
2014-10-15T01:48:17.224Z,72.74
2014-10-15T01:49:21.929Z,72.9
2014-10-15T01:50:26.915Z,74.04
2014-10-15T01:51:31.620Z,74
2014-10-15T01:52:36.310Z,74.21
2014-10-15T01:53:41.016Z,74.61
2014-10-15T01:54:45.720Z,74.78
2014-10-15T01:55:50.457Z,74.01
2014-10-15T01:56:55.163Z,74.39
2014-10-15T01:57:59.852Z,74.95
2014-10-15T01:59:04.556Z,75.06
2014-10-15T02:00:09.261Z,75.13
2014-10-15T02:01:13.968Z,75.52
2014-10-15T02:02:18.673Z,75.26
2014-10-15T02:03:23.659Z,75.29
2014-10-15T02:04:28.661Z,75.56
2014-10-15T02:05:33.351Z,75.71
2014-10-15T02:06:38.071Z,75.7
2014-10-15T02:07:42.776Z,75.93
2014-10-15T02:08:47.467Z,76.04
2014-10-15T02:09:52.172Z,76.12
2014-10-15T02:10:56.877Z,76.63
2014-10-15T02:12:01.581Z,76.34
2014-10-15T02:13:06.287Z,75.96
2014-10-15T02:14:10.977Z,76.95
2014-10-15T02:15:15.682Z,76.82
2014-10-15T02:16:20.387Z,76.27
2014-10-15T02:17:25.389Z,76.21
2014-10-15T02:18:30.376Z,77.27
2014-10-15T02:19:35.081Z,77.02
2014-10-15T02:20:39.786Z,75.55
2014-10-15T02:21:44.773Z,74.92
2014-10-15T02:22:49.775Z,75.78
2014-10-15T02:23:54.479Z,75.65
2014-10-15T02:24:59.170Z,75.1
2014-10-15T02:26:03.875Z,74.06
2014-10-15T02:27:08.580Z,73.1
2014-10-15T02:28:13.285Z,73.16
2014-10-15T02:29:18.005Z,73.02
2014-10-15T02:30:22.695Z,72.91
2014-10-15T02:31:27.401Z,72.69
2014-10-15T02:32:32.106Z,72.47
2014-10-15T02:33:36.795Z,71.97
2014-10-15T02:34:41.500Z,71.47
2014-10-15T02:35:46.205Z,71.53
2014-10-15T02:36:50.895Z,71.4
2014-10-15T02:37:55.898Z,70.65
2014-10-15T02:39:00.619Z,70.96
2014-10-15T02:40:05.308Z,71.53
2014-10-15T02:41:10.294Z,71.3
2014-10-15T02:42:14.984Z,71.28
2014-10-15T02:43:19.689Z,72.17
2014-10-15T02:44:24.393Z,71.27
2014-10-15T02:45:29.084Z,72.06
2014-10-15T02:46:34.070Z,72.46
2014-10-15T02:47:38.775Z,72.38
2014-10-15T02:48:43.465Z,73.01
2014-10-15T02:49:48.451Z,72.74
2014-10-15T02:50:53.156Z,73.18
2014-10-15T02:51:57.861Z,73.34
2014-10-15T02:53:02.849Z,72.96
2014-10-15T02:54:07.835Z,72.9
2014-10-15T02:55:12.539Z,73.17
2014-10-15T02:56:17.230Z,73.29
2014-10-15T02:57:21.935Z,73.28
2014-10-15T02:58:26.640Z,73.32
2014-10-15T02:59:31.345Z,74.17
2014-10-15T03:00:36.034Z,74.13
2014-10-15T03:01:40.740Z,74.13
2014-10-15T03:02:45.429Z,73.9
2014-10-15T03:03:50.134Z,73.62
2014-10-15T03:04:54.136Z,73.96
2014-10-15T03:05:58.826Z,73.95
2014-10-15T03:07:03.516Z,73.99
2014-10-15T03:08:08.221Z,74.2
2014-10-15T03:09:12.911Z,74.22
2014-10-15T03:10:17.897Z,74.45
2014-10-15T03:11:22.602Z,75.16
2014-10-15T03:12:27.589Z,75.37
2014-10-15T03:13:32.278Z,75.44
2014-10-15T03:14:36.984Z,75.02
2014-10-15T03:15:41.673Z,74.73
2014-10-15T03:16:46.378Z,74.97
2014-10-15T03:17:51.068Z,74.89
2014-10-15T03:18:56.054Z,74.87
2014-10-15T03:20:00.745Z,75.12
2014-10-15T03:21:05.746Z,74.88
2014-10-15T03:22:10.733Z,74.67
2014-10-15T03:23:14.735Z,74.23
2014-10-15T03:24:19.424Z,74.33
2014-10-15T03:25:24.129Z,74.24
2014-10-15T03:26:28.819Z,74.48
2014-10-15T03:27:33.524Z,74.91
2014-10-15T03:28:38.510Z,74.91
2014-10-15T03:29:43.497Z,74.38
2014-10-15T03:30:48.202Z,75.2
2014-10-15T03:31:52.892Z,75.22
2014-10-15T03:32:57.597Z,75.04
2014-10-15T03:34:02.302Z,75.06
2014-10-15T03:35:06.991Z,75.33
2014-10-15T03:36:11.681Z,75.6
2014-10-15T03:37:16.386Z,75.45
2014-10-15T03:38:21.075Z,75.34
2014-10-15T03:39:25.781Z,75.45
2014-10-15T03:40:30.471Z,75.34
2014-10-15T03:41:35.457Z,75.23
2014-10-15T03:42:40.162Z,75.43
2014-10-15T03:43:45.149Z,75.3
2014-10-15T03:44:49.837Z,75.47
2014-10-15T03:45:54.544Z,75.42
2014-10-15T03:46:59.233Z,74.68
2014-10-15T03:48:03.938Z,74.64
2014-10-15T03:49:08.628Z,75.34
2014-10-15T03:50:13.364Z,74.79
2014-10-15T03:51:18.116Z,74.1
2014-10-15T03:52:22.822Z,73.98
2014-10-15T03:53:27.511Z,73.93
2014-10-15T03:54:32.216Z,74.35
2014-10-15T03:55:36.906Z,74.15
2014-10-15T03:56:41.610Z,74.49
2014-10-15T03:57:46.612Z,74.46
2014-10-15T03:58:51.334Z,74.68
2014-10-15T03:59:56.024Z,74.89
2014-10-15T04:01:00.729Z,74.89
2014-10-15T04:02:05.417Z,74.68
2014-10-15T04:03:09.420Z,74.16
2014-10-15T04:04:14.125Z,74.19
2014-10-15T04:05:18.815Z,73.83
2014-10-15T04:06:22.817Z,73.42
2014-10-15T04:07:27.523Z,74.2
2014-10-15T04:08:32.213Z,74.6
2014-10-15T04:09:36.917Z,73.9
2014-10-15T04:10:41.607Z,74.61
2014-10-15T04:11:46.296Z,74.74
2014-10-15T04:12:51.002Z,74.77
2014-10-15T04:13:55.690Z,74.66
2014-10-15T04:15:00.395Z,74.64
2014-10-15T04:16:05.086Z,74.64
2014-10-15T04:17:09.775Z,75.07
2014-10-15T04:18:14.777Z,75.58
2014-10-15T04:19:19.467Z,76.1
2014-10-15T04:20:24.156Z,75.05
2014-10-15T04:21:28.862Z,74.22
2014-10-15T04:22:33.552Z,74.47
2014-10-15T04:23:38.273Z,74.8
2014-10-15T04:24:42.978Z,75.18
2014-10-15T04:25:47.683Z,75.2
2014-10-15T04:26:51.685Z,75.22
2014-10-15T04:27:56.390Z,75.3
2014-10-15T04:29:01.376Z,74.67
2014-10-15T04:30:06.379Z,73.79
2014-10-15T04:31:11.068Z,74.13
2014-10-15T04:32:15.086Z,74.67
2014-10-15T04:33:20.072Z,75.01
2014-10-15T04:34:24.762Z,75.02
2014-10-15T04:35:29.764Z,75.38
2014-10-15T04:36:34.453Z,75.39
2014-10-15T04:37:39.456Z,74.84
2014-10-15T04:38:44.145Z,73.78
2014-10-15T04:39:49.148Z,73.75
2014-10-15T04:40:53.853Z,73.66
2014-10-15T04:41:58.542Z,73.63
2014-10-15T04:43:03.246Z,73.87
2014-10-15T04:44:07.951Z,73.84
2014-10-15T04:45:12.939Z,74.12
2014-10-15T04:46:17.644Z,74.83
2014-10-15T04:47:22.349Z,74.96
2014-10-15T04:48:27.070Z,73.83
2014-10-15T04:49:32.353Z,73.1
2014-10-15T04:50:37.059Z,72.54
2014-10-15T04:51:41.763Z,72.31
2014-10-15T04:52:45.798Z,72.91
2014-10-15T04:53:50.783Z,72.91
2014-10-15T04:54:55.786Z,72.71
2014-10-15T04:56:00.474Z,73.56
2014-10-15T04:57:05.196Z,74.4
2014-10-15T04:58:09.886Z,74.01
2014-10-15T04:59:14.591Z,73.61
2014-10-15T05:00:19.296Z,73.01
2014-10-15T05:01:24.001Z,72.82
2014-10-15T05:02:28.691Z,72.87
2014-10-15T05:03:33.396Z,72.77
2014-10-15T05:04:38.101Z,72.62
2014-10-15T05:05:42.790Z,72.23
2014-10-15T05:06:47.495Z,71.49
2014-10-15T05:07:52.201Z,72.32
2014-10-15T05:08:56.891Z,72.88
2014-10-15T05:10:01.596Z,73.28
2014-10-15T05:11:06.597Z,74.02
2014-10-15T05:12:11.302Z,74.47
2014-10-15T05:13:16.007Z,74.34
2014-10-15T05:14:20.713Z,72.87
2014-10-15T05:15:25.419Z,72.49
2014-10-15T05:16:30.108Z,73.05
2014-10-15T05:17:34.812Z,74.15
2014-10-15T05:18:39.518Z,74.46
2014-10-15T05:19:44.520Z,74.27
2014-10-15T05:20:49.507Z,74.35
2014-10-15T05:21:54.196Z,74.5
2014-10-15T05:22:58.933Z,74.63
2014-10-15T05:24:03.665Z,74.76
2014-10-15T05:25:08.428Z,74.88
2014-10-15T05:26:13.158Z,75.01
2014-10-15T05:27:18.182Z,75.04
2014-10-15T05:28:22.903Z,75.02
2014-10-15T05:29:27.607Z,75.3
2014-10-15T05:30:32.311Z,75.5
2014-10-15T05:31:37.032Z,75.6
2014-10-15T05:32:42.028Z,75.5
2014-10-15T05:33:46.723Z,75.16
2014-10-15T05:34:51.418Z,74.13
2014-10-15T05:35:56.113Z,73.51
2014-10-15T05:37:00.824Z,73.05
2014-10-15T05:38:05.812Z,72.98
2014-10-15T05:39:10.519Z,73.43
2014-10-15T05:40:15.508Z,73.41
2014-10-15T05:41:20.200Z,73.05
2014-10-15T05:42:25.188Z,73.45
2014-10-15T05:43:29.878Z,72.91
2014-10-15T05:44:34.585Z,72.14
2014-10-15T05:45:39.275Z,72.94
2014-10-15T05:46:44.559Z,73.82
2014-10-15T05:47:49.249Z,74.94
2014-10-15T05:48:53.955Z,75.07
2014-10-15T05:49:58.645Z,74.82
2014-10-15T05:51:03.336Z,74.72
2014-10-15T05:52:08.041Z,75.32
2014-10-15T05:53:12.730Z,75.74
2014-10-15T05:54:17.434Z,75.39
2014-10-15T05:55:22.125Z,75.51
2014-10-15T05:56:26.846Z,75.4
2014-10-15T05:57:31.848Z,75.65
2014-10-15T05:58:36.553Z,75.75
2014-10-15T05:59:41.258Z,74.53
2014-10-15T06:00:45.947Z,73.35
2014-10-15T06:01:50.637Z,72.63
2014-10-15T06:02:55.639Z,72.61
2014-10-15T06:04:00.907Z,73.64
2014-10-15T06:05:05.612Z,74.24
2014-10-15T06:06:10.318Z,74.48
2014-10-15T06:07:15.007Z,74.92
2014-10-15T06:08:19.696Z,74.79
2014-10-15T06:09:24.402Z,75.14
2014-10-15T06:10:29.090Z,75.18
2014-10-15T06:11:34.078Z,75.46
2014-10-15T06:12:38.767Z,75.47
2014-10-15T06:13:43.457Z,75.63
2014-10-15T06:14:48.162Z,75.52
2014-10-15T06:15:52.851Z,75.77
2014-10-15T06:16:57.556Z,76.25
2014-10-15T06:18:02.263Z,76.01
2014-10-15T06:19:06.952Z,76.13
2014-10-15T06:20:11.657Z,75.97
2014-10-15T06:21:16.643Z,76.02
2014-10-15T06:22:21.630Z,75.78
2014-10-15T06:23:26.318Z,75.77
2014-10-15T06:24:31.305Z,75.79
2014-10-15T06:25:36.308Z,75.46
2014-10-15T06:26:40.997Z,75.25
2014-10-15T06:27:45.687Z,75.46
2014-10-15T06:28:50.673Z,75.42
2014-10-15T06:29:55.378Z,75.19
2014-10-15T06:31:00.068Z,75.43
2014-10-15T06:32:05.055Z,75.25
2014-10-15T06:33:09.056Z,75.25
2014-10-15T06:34:13.761Z,74.85
2014-10-15T06:35:18.452Z,74.58
2014-10-15T06:36:23.140Z,74.02
2014-10-15T06:37:27.845Z,74.02
2014-10-15T06:38:32.536Z,73.76
2014-10-15T06:39:37.241Z,75.04
2014-10-15T06:40:42.227Z,74.29
2014-10-15T06:41:46.917Z,73.77
2014-10-15T06:42:51.622Z,72.05
2014-10-15T06:43:56.327Z,70.61
2014-10-15T06:45:01.017Z,70.3
2014-10-15T06:46:05.722Z,65.44
2014-10-15T06:47:10.708Z,65.53
2014-10-15T06:48:15.710Z,67
2014-10-15T06:49:20.400Z,69.35
2014-10-15T06:50:25.106Z,69.95
2014-10-15T06:51:29.794Z,70.64
2014-10-15T06:52:34.499Z,71.35
2014-10-15T06:53:39.190Z,71.92
2014-10-15T06:54:43.895Z,71.9
2014-10-15T06:55:48.881Z,70.93
2014-10-15T06:56:53.587Z,65.72
2014-10-15T06:57:58.276Z,63.91
2014-10-15T06:59:02.982Z,62.44
2014-10-15T07:00:07.686Z,60.88
2014-10-15T07:01:12.391Z,62.98
2014-10-15T07:02:17.097Z,65.05
2014-10-15T07:03:21.802Z,65.42
2014-10-15T07:04:26.492Z,65.09
2014-10-15T07:05:31.196Z,65.11
2014-10-15T07:06:35.901Z,65.43
2014-10-15T07:07:40.607Z,66.28
2014-10-15T07:08:45.313Z,65.89
2014-10-15T07:09:50.018Z,65.12
2014-10-15T07:10:54.706Z,65.7
2014-10-15T07:11:59.412Z,66.42
2014-10-15T07:13:04.118Z,66.79
2014-10-15T07:14:09.120Z,66.67
2014-10-15T07:15:13.825Z,67.46
2014-10-15T07:16:18.515Z,67.71
2014-10-15T07:17:23.517Z,68.12
2014-10-15T07:18:28.221Z,68.82
2014-10-15T07:19:32.926Z,69.42
2014-10-15T07:20:37.632Z,69.15
2014-10-15T07:21:42.338Z,69.17
2014-10-15T07:22:46.340Z,70.42
2014-10-15T07:23:51.045Z,70.94
2014-10-15T07:24:55.750Z,70.63
2014-10-15T07:26:00.455Z,70.49
2014-10-15T07:27:05.145Z,70.4
2014-10-15T07:28:09.850Z,70.38
2014-10-15T07:29:14.539Z,70.82
2014-10-15T07:30:19.229Z,70.89
2014-10-15T07:31:24.231Z,72.23
2014-10-15T07:32:28.921Z,71.46
2014-10-15T07:33:33.610Z,72.2
2014-10-15T07:34:38.315Z,71.5
2014-10-15T07:35:43.004Z,71.49
2014-10-15T07:36:47.709Z,69.79
2014-10-15T07:37:52.415Z,69.52
2014-10-15T07:38:57.402Z,68.99
2014-10-15T07:40:02.090Z,69.19
2014-10-15T07:41:06.797Z,68.04
2014-10-15T07:42:11.783Z,68.1
2014-10-15T07:43:16.472Z,67.91
2014-10-15T07:44:21.178Z,68.49
2014-10-15T07:45:25.867Z,67.78
2014-10-15T07:46:30.573Z,69.4
2014-10-15T07:47:35.559Z,70.95
2014-10-15T07:48:40.264Z,71.53
2014-10-15T07:49:44.969Z,71.48
2014-10-15T07:50:49.675Z,70.78
2014-10-15T07:51:54.380Z,69.53
2014-10-15T07:52:59.085Z,69.72
2014-10-15T07:54:03.775Z,68.93
2014-10-15T07:55:08.480Z,69.23
2014-10-15T07:56:13.169Z,68.45
2014-10-15T07:57:17.874Z,68.45
2014-10-15T07:58:22.564Z,67.68
2014-10-15T07:59:27.269Z,69.19
2014-10-15T08:00:31.959Z,69.01
2014-10-15T08:01:36.664Z,67.67
2014-10-15T08:02:41.369Z,68.88
2014-10-15T08:03:46.058Z,69.03
2014-10-15T08:04:50.780Z,68.26
2014-10-15T08:05:55.485Z,68.47
2014-10-15T08:07:00.174Z,67.94
2014-10-15T08:08:04.880Z,68.47
2014-10-15T08:09:09.568Z,68.91
2014-10-15T08:10:14.273Z,68.82
2014-10-15T08:11:18.980Z,69.37
2014-10-15T08:12:23.669Z,69.19
2014-10-15T08:13:28.374Z,68.72
2014-10-15T08:14:33.064Z,68.52
2014-10-15T08:15:37.769Z,68.52
2014-10-15T08:16:42.458Z,68.13
2014-10-15T08:17:47.460Z,67.51
2014-10-15T08:18:52.150Z,67.26
2014-10-15T08:19:56.856Z,67.38
2014-10-15T08:21:01.545Z,66.34
2014-10-15T08:22:06.250Z,66.54
2014-10-15T08:23:10.956Z,66.39
2014-10-15T08:24:15.645Z,66.52
2014-10-15T08:25:20.334Z,67.47
2014-10-15T08:26:25.040Z,68.22
2014-10-15T08:27:29.745Z,67.24
2014-10-15T08:28:34.434Z,67.08
2014-10-15T08:29:39.124Z,65.92
2014-10-15T08:30:44.407Z,65.44
2014-10-15T08:31:49.112Z,66.08
2014-10-15T08:32:53.802Z,66.42
2014-10-15T08:33:58.804Z,65.77
2014-10-15T08:35:03.510Z,64.77
2014-10-15T08:36:08.199Z,65.53
2014-10-15T08:37:12.919Z,65.46
2014-10-15T08:38:17.609Z,65.31
2014-10-15T08:39:22.315Z,65.95
2014-10-15T08:40:27.020Z,65.97
2014-10-15T08:41:31.709Z,65.92
2014-10-15T08:42:36.711Z,66.2
2014-10-15T08:43:41.417Z,65.96
2014-10-15T08:44:46.106Z,66.14
2014-10-15T08:45:50.812Z,66.7
2014-10-15T08:46:55.501Z,65.6
2014-10-15T08:48:00.206Z,65.1
2014-10-15T08:49:04.895Z,65.95
2014-10-15T08:50:09.600Z,65.57
2014-10-15T08:51:14.587Z,65.09
2014-10-15T08:52:19.293Z,64.67
2014-10-15T08:53:24.295Z,63.32
2014-10-15T08:54:29.046Z,63.75
2014-10-15T08:55:33.751Z,63.25
2014-10-15T08:56:38.457Z,62.49
2014-10-15T08:57:43.225Z,62.31
2014-10-15T08:58:47.930Z,62.32
2014-10-15T08:59:52.635Z,62.71
2014-10-15T09:00:57.341Z,62.63
2014-10-15T09:02:02.092Z,62.38
2014-10-15T09:03:06.797Z,62.76
2014-10-15T09:04:11.502Z,63.91
2014-10-15T09:05:16.209Z,63.5
2014-10-15T09:06:20.944Z,63.47
2014-10-15T09:07:25.649Z,62.83
2014-10-15T09:08:30.354Z,62.96
2014-10-15T09:09:35.059Z,62.92
2014-10-15T09:10:39.764Z,63.12
2014-10-15T09:11:44.471Z,62.96
2014-10-15T09:12:49.191Z,63.18
2014-10-15T09:13:53.896Z,62.66
2014-10-15T09:14:58.602Z,62.81
2014-10-15T09:16:03.307Z,63.02
2014-10-15T09:17:08.012Z,62.9
2014-10-15T09:18:12.717Z,62.67
2014-10-15T09:19:17.439Z,62.46
2014-10-15T09:20:22.128Z,62.13
2014-10-15T09:21:26.832Z,62.78
2014-10-15T09:22:31.537Z,62.72
2014-10-15T09:23:36.243Z,62.52
2014-10-15T09:24:40.964Z,62.09
2014-10-15T09:25:45.668Z,61.3
2014-10-15T09:26:50.375Z,61.16
2014-10-15T09:27:55.080Z,62.17
2014-10-15T09:28:59.785Z,60.88
2014-10-15T09:30:04.490Z,61.28
2014-10-15T09:31:09.226Z,60.94
2014-10-15T09:32:13.916Z,60.98
2014-10-15T09:33:18.621Z,61.13
2014-10-15T09:34:23.327Z,60.7
2014-10-15T09:35:28.312Z,61.44
2014-10-15T09:36:33.002Z,61.92
2014-10-15T09:37:38.005Z,63.53
2014-10-15T09:38:42.990Z,64.13
2014-10-15T09:39:47.680Z,64.37
2014-10-15T09:40:52.386Z,64.39
2014-10-15T09:41:57.075Z,64.92
2014-10-15T09:43:01.781Z,65.07
2014-10-15T09:44:06.470Z,64.88
2014-10-15T09:45:11.175Z,65.24
2014-10-15T09:46:15.865Z,65.43
2014-10-15T09:47:20.570Z,65.35
2014-10-15T09:48:25.259Z,65.8
2014-10-15T09:49:29.964Z,64.62
2014-10-15T09:50:34.654Z,64.89
2014-10-15T09:51:39.360Z,64.35
2014-10-15T09:52:44.362Z,65.5
2014-10-15T09:53:49.052Z,64.95
2014-10-15T09:54:54.054Z,65.01
2014-10-15T09:55:58.743Z,64.43
2014-10-15T09:57:03.604Z,65.39
2014-10-15T09:58:08.294Z,64.18
2014-10-15T09:59:12.999Z,64.4
2014-10-15T10:00:17.985Z,65.28
2014-10-15T10:01:22.987Z,65.6
2014-10-15T10:02:27.709Z,66.3
2014-10-15T10:03:32.398Z,66.52
2014-10-15T10:04:37.400Z,66.06
2014-10-15T10:05:41.934Z,66.62
2014-10-15T10:06:46.920Z,67.4
2014-10-15T10:07:50.860Z,67.1
2014-10-15T10:08:55.565Z,66.39
2014-10-15T10:10:00.550Z,66.99
2014-10-15T10:11:05.240Z,66.4
2014-10-15T10:12:10.243Z,66.26
2014-10-15T10:13:14.948Z,66.62
2014-10-15T10:14:19.653Z,66.7
2014-10-15T10:15:24.639Z,67.24
2014-10-15T10:16:29.345Z,66.31
2014-10-15T10:17:34.050Z,65.46
2014-10-15T10:18:39.037Z,64.53
2014-10-15T10:19:43.742Z,63.49
2014-10-15T10:20:48.431Z,64.2
2014-10-15T10:21:53.137Z,63.22
2014-10-15T10:22:57.825Z,63.41
2014-10-15T10:24:02.812Z,64.15
2014-10-15T10:25:07.518Z,65.35
2014-10-15T10:26:12.520Z,64.29
2014-10-15T10:27:17.208Z,64.35
2014-10-15T10:28:22.211Z,64.11
2014-10-15T10:29:26.901Z,62.95
2014-10-15T10:30:31.606Z,63.12
2014-10-15T10:31:36.311Z,63.31
2014-10-15T10:32:40.314Z,63.5
2014-10-15T10:33:45.300Z,64.22
2014-10-15T10:34:50.301Z,63.42
2014-10-15T10:35:55.007Z,63.4
2014-10-15T10:36:59.994Z,63.56
2014-10-15T10:38:04.699Z,63.72
2014-10-15T10:39:09.404Z,63.19
2014-10-15T10:40:14.094Z,62.88
2014-10-15T10:41:18.799Z,62.9
2014-10-15T10:42:23.504Z,61.55
2014-10-15T10:43:28.490Z,62.14
2014-10-15T10:44:33.195Z,61.77
2014-10-15T10:45:37.901Z,61.62
2014-10-15T10:46:42.606Z,61.98
2014-10-15T10:47:47.311Z,61.39
2014-10-15T10:50:10.908Z,61.7
2014-10-15T10:51:15.911Z,62.37
2014-10-15T10:52:20.616Z,62.69
2014-10-15T10:53:25.320Z,62.26
2014-10-15T10:54:30.010Z,60.91
2014-10-15T10:55:34.701Z,61.05
2014-10-15T10:56:39.406Z,60.73
2014-10-15T10:57:44.111Z,58.75
2014-10-15T10:58:48.801Z,58.82
2014-10-15T10:59:53.506Z,56.71
2014-10-15T11:00:58.211Z,58.68
2014-10-15T11:02:02.900Z,58.31
2014-10-15T11:03:07.605Z,58.1
2014-10-15T11:04:12.592Z,58.66
2014-10-15T11:05:17.594Z,58.03
2014-10-15T11:06:22.300Z,57.1
2014-10-15T11:07:26.989Z,57.53
2014-10-15T11:08:31.695Z,56.79
2014-10-15T11:09:36.400Z,56.79
2014-10-15T11:10:41.089Z,56.69
2014-10-15T11:11:45.794Z,57.71
2014-10-15T11:12:50.484Z,58.02
2014-10-15T11:13:55.767Z,57.82
2014-10-15T11:15:00.472Z,58.73
2014-10-15T11:16:05.177Z,57.56
2014-10-15T11:17:09.867Z,56.65
2014-10-15T11:18:14.573Z,56.76
2014-10-15T11:19:19.261Z,56.35
2014-10-15T11:20:23.968Z,56.67
2014-10-15T11:21:28.954Z,56.01
2014-10-15T11:22:33.659Z,55.85
2014-10-15T11:23:38.365Z,55.85
2014-10-15T11:24:43.054Z,56.71
2014-10-15T11:25:47.774Z,58.33
2014-10-15T11:26:52.761Z,58.98
2014-10-15T11:27:57.482Z,58.16
2014-10-15T11:29:02.187Z,57.94
2014-10-15T11:30:06.877Z,56.3
2014-10-15T11:31:11.581Z,56.94
2014-10-15T11:32:16.569Z,57.16
2014-10-15T11:33:21.555Z,57.26
2014-10-15T11:34:26.260Z,57.3
2014-10-15T11:35:31.247Z,57.68
2014-10-15T11:36:35.952Z,58.25
2014-10-15T11:37:40.672Z,57.58
2014-10-15T11:38:45.362Z,57.82
2014-10-15T11:39:50.067Z,58.96
2014-10-15T11:40:55.070Z,57.8
2014-10-15T11:41:59.759Z,57.32
2014-10-15T11:43:04.464Z,58.88
2014-10-15T11:44:09.154Z,58.05
2014-10-15T11:45:14.140Z,58.47
2014-10-15T11:46:18.846Z,58.51
2014-10-15T11:47:23.551Z,57.55
2014-10-15T11:48:28.537Z,57.52
2014-10-15T11:49:33.226Z,58.24
2014-10-15T11:50:37.932Z,60.74
2014-10-15T11:51:42.934Z,59.51
2014-10-15T11:52:47.936Z,58.79
2014-10-15T11:53:51.953Z,58.32
2014-10-15T11:54:56.643Z,57.02
2014-10-15T11:56:01.349Z,58.6
2014-10-15T11:57:06.054Z,58.84
2014-10-15T11:58:10.758Z,58.68
2014-10-15T11:59:15.745Z,61.68
2014-10-15T12:00:20.451Z,61.96
2014-10-15T12:01:25.453Z,62.07
2014-10-15T12:02:30.439Z,61.36
2014-10-15T12:03:35.426Z,59.18
2014-10-15T12:04:40.131Z,57.65
2014-10-15T12:05:44.836Z,56.49
2014-10-15T12:06:49.541Z,57.15
2014-10-15T12:07:54.543Z,56.32
2014-10-15T12:08:59.248Z,58.29
2014-10-15T12:10:03.954Z,58.42
2014-10-15T12:11:08.955Z,58.02
2014-10-15T12:12:13.660Z,57.77
2014-10-15T12:13:18.365Z,57.76
2014-10-15T12:14:23.087Z,56.78
2014-10-15T12:15:27.791Z,57.72
2014-10-15T12:16:32.496Z,56.5
2014-10-15T12:17:37.203Z,58.43
2014-10-15T12:18:41.908Z,58.04
2014-10-15T12:19:46.613Z,57.58
2014-10-15T12:20:51.318Z,56.85
2014-10-15T12:21:56.023Z,56.59
2014-10-15T12:23:00.745Z,55.95
2014-10-15T12:24:05.449Z,56.5
2014-10-15T12:25:10.155Z,57.46
2014-10-15T12:26:14.860Z,56.17
2014-10-15T12:27:19.564Z,55.7
2014-10-15T12:28:24.285Z,55.54
2014-10-15T12:29:28.991Z,55.09
2014-10-15T12:30:33.695Z,55.62
2014-10-15T12:31:38.697Z,55.06
2014-10-15T12:32:43.402Z,56.72
2014-10-15T12:33:48.109Z,56.81
2014-10-15T12:34:52.814Z,58.71
2014-10-15T12:35:57.816Z,57.58
2014-10-15T12:37:02.521Z,56.26
2014-10-15T12:38:07.226Z,55.76
2014-10-15T12:39:11.947Z,55.19
2014-10-15T12:40:16.652Z,56.25
2014-10-15T12:41:21.357Z,56.72
2014-10-15T12:42:26.063Z,56.18
2014-10-15T12:43:30.768Z,55.92
2014-10-15T12:44:35.472Z,55.53
2014-10-15T12:45:40.194Z,57.1
2014-10-15T12:46:44.899Z,56.76
2014-10-15T12:47:49.603Z,56.28
2014-10-15T12:48:54.605Z,55.95
2014-10-15T12:49:59.327Z,56.21
2014-10-15T12:51:04.032Z,56.35
2014-10-15T12:52:08.722Z,56.44
2014-10-15T12:53:13.724Z,57.01
2014-10-15T12:54:18.429Z,57.35
2014-10-15T12:55:23.118Z,58.79
2014-10-15T12:56:27.823Z,58.77
2014-10-15T12:57:32.529Z,58.49
2014-10-15T12:58:37.218Z,58.88
2014-10-15T12:59:41.924Z,59.76
2014-10-15T13:00:46.628Z,59.88
2014-10-15T13:01:51.319Z,60.9
2014-10-15T13:02:56.024Z,62.15
2014-10-15T13:04:00.729Z,61
2014-10-15T13:05:05.419Z,61.92
2014-10-15T13:06:10.124Z,64.85
2014-10-15T13:07:14.813Z,64.06
2014-10-15T13:08:19.518Z,65.23
2014-10-15T13:09:24.208Z,66.33
2014-10-15T13:10:29.210Z,64.3
2014-10-15T13:11:33.899Z,64.21
2014-10-15T13:12:38.604Z,64.7
2014-10-15T13:13:43.295Z,64.27
2014-10-15T13:14:48.000Z,64.32
2014-10-15T13:15:52.705Z,63.71
2014-10-15T13:16:57.691Z,63.43
2014-10-15T13:18:02.397Z,65.72
2014-10-15T13:19:07.383Z,68.41
2014-10-15T13:20:12.088Z,69.26
2014-10-15T13:21:16.793Z,67.47
2014-10-15T13:22:21.483Z,66.05
2014-10-15T13:23:26.188Z,66.68
2014-10-15T13:24:30.893Z,66.72
2014-10-15T13:25:35.599Z,65.85
2014-10-15T13:26:40.288Z,66.72
2014-10-15T13:27:44.993Z,65.16
2014-10-15T13:28:49.699Z,64.3
2014-10-15T13:29:54.387Z,65.57
2014-10-15T13:30:59.093Z,65.14
2014-10-15T13:32:03.783Z,67.63
2014-10-15T13:33:08.488Z,68.65
2014-10-15T13:34:13.177Z,68.62
2014-10-15T13:35:17.883Z,68.16
2014-10-15T13:36:22.588Z,65.54
2014-10-15T13:37:26.590Z,65.16
2014-10-15T13:38:31.279Z,66.15
2014-10-15T13:39:35.985Z,65.54
2014-10-15T13:40:40.690Z,64.24
2014-10-15T13:41:45.395Z,63.78
2014-10-15T13:42:50.084Z,64.3
2014-10-15T13:43:54.789Z,66.02
2014-10-15T13:44:59.495Z,64.8
2014-10-15T13:46:04.184Z,64.93
2014-10-15T13:47:08.890Z,64.73
2014-10-15T13:48:13.594Z,64.82
2014-10-15T13:49:18.285Z,66.71
2014-10-15T13:50:22.990Z,67.69
2014-10-15T13:51:27.695Z,68.56
2014-10-15T13:52:31.697Z,66.03
2014-10-15T13:53:36.402Z,64.2
2014-10-15T13:58:57.773Z,63.74
2014-10-15T14:00:02.509Z,62.33
2014-10-15T14:01:07.197Z,64.3
2014-10-15T14:02:11.903Z,62.93